createdAt,value
2023-05-27T00:01:58.194Z,18.52
2023-05-27T00:05:00.378Z,15.82
2023-05-27T00:08:02.245Z,15.13
2023-05-27T00:11:03.842Z,13.77
2023-05-27T00:14:05.461Z,12.65
2023-05-27T00:17:07.196Z,14.38
2023-05-27T00:20:11.197Z,13.38
2023-05-27T00:23:12.834Z,12.15
2023-05-27T00:26:14.929Z,13.10
2023-05-27T00:29:19.949Z,12.73
2023-05-27T00:32:21.627Z,13.32
2023-05-27T00:35:23.298Z,14.02
2023-05-27T00:38:24.890Z,12.25
2023-05-27T00:41:27.585Z,14.18
2023-05-27T00:44:29.410Z,11.35
2023-05-27T00:47:34.163Z,12.48
2023-05-27T00:50:35.941Z,11.70
2023-05-27T00:53:42.489Z,15.63
2023-05-27T00:56:44.836Z,13.13
2023-05-27T00:59:46.635Z,12.38
2023-05-27T01:02:49.537Z,15.65
2023-05-27T01:06:01.562Z,15.95
2023-05-27T01:09:25.652Z,11.95
2023-05-27T01:12:42.058Z,15.15
2023-05-27T01:15:43.961Z,16.98
2023-05-27T01:18:46.238Z,17.13
2023-05-27T01:21:51.887Z,16.08
2023-05-27T01:24:53.786Z,17.10
2023-05-27T01:27:57.341Z,15.52
2023-05-27T01:31:10.791Z,16.50
2023-05-27T01:34:19.247Z,16.00
2023-05-27T01:37:24.501Z,16.35
2023-05-27T01:40:27.807Z,15.73
2023-05-27T01:43:30.060Z,16.83
2023-05-27T01:46:31.636Z,17.52
2023-05-27T01:49:33.342Z,17.40
2023-05-27T01:52:34.948Z,15.52
2023-05-27T01:55:36.613Z,15.95
2023-05-27T01:58:38.235Z,20.05
2023-05-27T02:01:41.038Z,14.73
2023-05-27T02:04:42.705Z,16.80
2023-05-27T02:07:44.361Z,20.70
2023-05-27T02:10:45.995Z,16.45
2023-05-27T02:13:47.685Z,16.08
2023-05-27T02:16:50.688Z,15.52
2023-05-27T02:19:52.482Z,18.20
2023-05-27T02:22:54.292Z,18.00
2023-05-27T02:25:56.323Z,17.95
2023-05-27T02:28:57.887Z,15.30
2023-05-27T02:31:59.517Z,14.07
2023-05-27T02:35:01.249Z,16.15
2023-05-27T02:38:02.968Z,18.85
2023-05-27T02:41:04.684Z,16.70
2023-05-27T02:44:06.697Z,14.38
2023-05-27T02:47:08.410Z,14.15
2023-05-27T02:50:10.414Z,18.38
2023-05-27T02:53:12.088Z,17.92
2023-05-27T02:56:13.699Z,20.23
2023-05-27T02:59:15.354Z,18.30
2023-05-27T03:02:17.080Z,18.15
2023-05-27T03:05:18.714Z,14.30
2023-05-27T03:08:20.390Z,16.83
2023-05-27T03:11:22.352Z,18.75
2023-05-27T03:14:24.183Z,19.05
2023-05-27T03:17:25.984Z,16.58
2023-05-27T03:20:27.585Z,17.73
2023-05-27T03:23:29.251Z,18.13
2023-05-27T03:26:31.284Z,18.25
2023-05-27T03:29:32.965Z,15.32
2023-05-27T03:32:35.056Z,20.30
2023-05-27T03:35:36.739Z,17.92
2023-05-27T03:38:38.391Z,17.67
2023-05-27T03:41:40.073Z,20.98
2023-05-27T03:44:41.693Z,18.55
2023-05-27T03:47:43.384Z,17.40
2023-05-27T03:50:44.970Z,14.75
2023-05-27T03:53:46.564Z,18.88
2023-05-27T03:56:48.203Z,13.35
2023-05-27T03:59:49.839Z,16.17
2023-05-27T04:02:51.607Z,16.95
2023-05-27T04:05:53.296Z,18.48
2023-05-27T04:08:54.957Z,18.55
2023-05-27T04:11:56.664Z,17.02
2023-05-27T04:14:58.909Z,15.25
2023-05-27T04:18:00.946Z,14.35
2023-05-27T04:21:02.610Z,15.20
2023-05-27T04:24:04.715Z,13.00
2023-05-27T04:27:06.444Z,14.73
2023-05-27T04:30:09.885Z,15.05
2023-05-27T04:33:12.518Z,14.30
2023-05-27T04:36:18.076Z,15.73
2023-05-27T04:39:19.877Z,14.50
2023-05-27T04:42:21.700Z,14.27
2023-05-27T04:45:23.365Z,13.57
2023-05-27T04:48:25.199Z,14.43
2023-05-27T04:51:27.190Z,13.27
2023-05-27T04:54:28.890Z,17.48
2023-05-27T04:57:30.562Z,14.35
2023-05-27T05:00:51.729Z,13.35
2023-05-27T05:04:03.755Z,12.40
2023-05-27T05:07:05.446Z,13.70
2023-05-27T05:10:08.741Z,14.90
2023-05-27T05:13:10.502Z,12.35
2023-05-27T05:16:12.216Z,13.02
2023-05-27T05:19:13.988Z,12.77
2023-05-27T05:22:15.580Z,13.73
2023-05-27T05:25:17.129Z,13.07
2023-05-27T05:28:18.713Z,12.13
2023-05-27T05:31:20.485Z,10.32
2023-05-27T05:34:22.104Z,9.80
2023-05-27T05:37:25.016Z,10.48
2023-05-27T05:40:26.726Z,10.80
2023-05-27T05:43:28.422Z,10.10
2023-05-27T05:46:30.264Z,11.65
2023-05-27T05:49:31.969Z,10.45
2023-05-27T05:52:33.599Z,9.68
2023-05-27T05:55:35.537Z,7.50
2023-05-27T05:58:37.215Z,8.07
2023-05-27T06:01:38.826Z,10.48
2023-05-27T06:04:40.476Z,10.45
2023-05-27T06:07:42.139Z,9.30
2023-05-27T06:10:43.791Z,10.05
2023-05-27T06:13:45.432Z,8.85
2023-05-27T06:16:47.027Z,8.75
2023-05-27T06:19:48.602Z,9.48
2023-05-27T06:22:50.282Z,10.48
2023-05-27T06:25:52.957Z,9.40
2023-05-27T06:28:54.627Z,9.93
2023-05-27T06:31:56.237Z,7.68
2023-05-27T06:34:57.920Z,9.23
2023-05-27T06:38:00.146Z,10.20
2023-05-27T06:41:01.822Z,7.40
2023-05-27T06:44:03.749Z,7.28
2023-05-27T06:47:05.706Z,9.07
2023-05-27T06:50:08.110Z,9.75
2023-05-27T06:53:11.616Z,8.20
2023-05-27T06:56:13.221Z,8.00
2023-05-27T06:59:14.781Z,8.80
2023-05-27T07:02:16.431Z,6.93
2023-05-27T07:05:18.018Z,9.13
2023-05-27T07:08:19.680Z,10.45
2023-05-27T07:11:21.658Z,11.02
2023-05-27T07:14:23.251Z,8.00
2023-05-27T07:17:24.912Z,8.25
2023-05-27T07:20:26.656Z,9.20
2023-05-27T07:23:28.351Z,6.40
2023-05-27T07:26:31.302Z,9.45
2023-05-27T07:29:32.953Z,7.93
2023-05-27T07:32:34.713Z,10.25
2023-05-27T07:35:36.367Z,6.68
2023-05-27T07:38:38.038Z,8.07
2023-05-27T07:41:39.833Z,9.50
2023-05-27T07:44:41.473Z,8.63
2023-05-27T07:47:43.168Z,8.00
2023-05-27T07:50:44.914Z,8.73
2023-05-27T07:53:46.566Z,8.18
2023-05-27T07:56:48.277Z,7.10
2023-05-27T07:59:50.412Z,8.23
2023-05-27T08:02:52.150Z,7.78
2023-05-27T08:05:55.294Z,5.93
2023-05-27T08:08:57.009Z,7.50
2023-05-27T08:11:58.832Z,8.73
2023-05-27T08:15:00.563Z,7.68
2023-05-27T08:18:02.880Z,9.05
2023-05-27T08:21:04.619Z,7.80
2023-05-27T08:24:06.505Z,7.57
2023-05-27T08:27:19.593Z,7.35
2023-05-27T08:30:21.352Z,7.88
2023-05-27T08:33:24.442Z,7.18
2023-05-27T08:36:26.147Z,6.70
2023-05-27T08:39:28.949Z,6.00
2023-05-27T08:42:30.717Z,6.68
2023-05-27T08:45:32.669Z,7.50
2023-05-27T08:48:34.429Z,6.15
2023-05-27T08:51:40.689Z,6.18
2023-05-27T08:54:43.330Z,6.40
2023-05-27T08:57:56.076Z,5.55
2023-05-27T09:00:58.246Z,6.45
2023-05-27T09:04:04.980Z,6.72
2023-05-27T09:07:07.077Z,7.72
2023-05-27T09:10:09.253Z,4.90
2023-05-27T09:13:10.920Z,7.55
2023-05-27T09:16:12.730Z,8.50
2023-05-27T09:19:18.804Z,6.82
2023-05-27T09:22:26.022Z,6.28
2023-05-27T09:25:29.109Z,6.70
2023-05-27T09:28:30.714Z,4.85
2023-05-27T09:31:32.416Z,8.98
2023-05-27T09:34:39.812Z,6.82
2023-05-27T09:37:42.151Z,6.45
2023-05-27T09:40:45.982Z,6.47
2023-05-27T09:43:55.044Z,5.35
2023-05-27T09:46:58.618Z,4.90
2023-05-27T09:50:00.878Z,9.50
2023-05-27T09:53:11.846Z,7.95
2023-05-27T09:56:14.531Z,6.90
2023-05-27T09:59:16.446Z,6.60
2023-05-27T10:02:21.338Z,6.70
2023-05-27T10:05:24.005Z,4.45
2023-05-27T10:08:27.100Z,4.88
2023-05-27T10:11:33.080Z,6.55
2023-05-27T10:14:35.069Z,8.57
2023-05-27T10:17:50.711Z,23.08
2023-05-27T10:20:52.935Z,6.50
2023-05-27T10:23:58.658Z,7.15
2023-05-27T10:27:07.088Z,9.90
2023-05-27T10:30:09.208Z,27.20
2023-05-27T10:33:11.085Z,11.85
2023-05-27T10:36:27.698Z,4.13
2023-05-27T10:39:30.184Z,7.07
2023-05-27T10:42:31.938Z,5.00
2023-05-27T10:45:35.047Z,4.82
2023-05-27T10:48:38.702Z,5.13
2023-05-27T10:51:41.066Z,6.03
2023-05-27T10:54:45.007Z,4.68
2023-05-27T10:57:48.063Z,5.32
2023-05-27T11:00:52.171Z,11.32
2023-05-27T11:03:55.353Z,8.40
2023-05-27T11:07:00.887Z,3.85
2023-05-27T11:10:06.639Z,5.13
2023-05-27T11:13:08.486Z,5.57
2023-05-27T11:16:10.942Z,6.88
2023-05-27T11:19:12.896Z,4.97
2023-05-27T11:22:15.988Z,4.45
2023-05-27T11:25:17.661Z,5.63
2023-05-27T11:28:19.269Z,5.93
2023-05-27T11:31:27.507Z,4.03
2023-05-27T11:34:29.343Z,6.18
2023-05-27T11:37:35.982Z,5.22
2023-05-27T11:40:40.400Z,7.22
2023-05-27T11:43:59.347Z,7.20
2023-05-27T11:47:01.842Z,6.72
2023-05-27T11:50:04.100Z,8.32
2023-05-27T11:53:05.736Z,5.07
2023-05-27T11:56:07.564Z,7.25
2023-05-27T11:59:09.251Z,6.50
2023-05-27T12:02:10.992Z,5.82
2023-05-27T12:05:18.493Z,4.85
2023-05-27T12:08:27.619Z,4.97
2023-05-27T12:11:29.264Z,6.28
2023-05-27T12:14:30.835Z,5.97
2023-05-27T12:17:32.436Z,6.78
2023-05-27T12:20:34.034Z,6.25
2023-05-27T12:23:35.857Z,7.93
2023-05-27T12:26:38.435Z,10.32
2023-05-27T12:29:40.012Z,5.60
2023-05-27T12:32:43.123Z,7.57
2023-05-27T12:35:45.051Z,5.18
2023-05-27T12:38:46.760Z,10.70
2023-05-27T12:41:48.741Z,4.47
2023-05-27T12:44:50.421Z,6.82
2023-05-27T12:47:52.123Z,7.35
2023-05-27T12:50:54.125Z,5.32
2023-05-27T12:53:55.692Z,6.38
2023-05-27T12:56:57.345Z,6.93
2023-05-27T12:59:58.910Z,4.72
2023-05-27T13:03:00.582Z,7.78
2023-05-27T13:06:02.263Z,7.03
2023-05-27T13:09:05.089Z,7.20
2023-05-27T13:12:07.254Z,6.75
2023-05-27T13:15:10.133Z,7.00
2023-05-27T13:18:11.856Z,10.63
2023-05-27T13:21:13.593Z,13.80
2023-05-27T13:24:15.192Z,13.70
2023-05-27T13:27:16.852Z,22.35
2023-05-27T13:30:18.755Z,10.27
2023-05-27T13:33:20.454Z,20.08
2023-05-27T13:36:22.062Z,7.40
2023-05-27T13:39:23.649Z,8.02
2023-05-27T13:42:25.722Z,7.38
2023-05-27T13:45:28.113Z,8.00
2023-05-27T13:48:30.778Z,7.97
2023-05-27T13:51:33.292Z,5.72
2023-05-27T13:54:34.999Z,5.93
2023-05-27T13:57:36.652Z,7.28
2023-05-27T14:00:38.350Z,7.20
2023-05-27T14:03:39.917Z,7.28
2023-05-27T14:06:41.773Z,7.80
2023-05-27T14:09:43.498Z,6.22
2023-05-27T14:12:45.084Z,6.03
2023-05-27T14:15:46.859Z,7.35
2023-05-27T14:18:48.731Z,8.30
2023-05-27T14:21:50.393Z,8.32
2023-05-27T14:24:52.214Z,8.32
2023-05-27T14:27:53.820Z,8.73
2023-05-27T14:30:55.621Z,5.03
2023-05-27T14:33:57.357Z,6.10
2023-05-27T14:36:59.029Z,5.20
2023-05-27T14:40:00.735Z,9.52
2023-05-27T14:43:02.862Z,7.32
2023-05-27T14:46:04.538Z,6.10
2023-05-27T14:49:06.467Z,5.25
2023-05-27T14:52:08.141Z,4.50
2023-05-27T14:55:10.486Z,5.22
2023-05-27T14:58:12.388Z,6.00
2023-05-27T15:01:15.985Z,7.63
2023-05-27T15:04:18.515Z,5.75
2023-05-27T15:07:23.523Z,5.90
2023-05-27T15:10:25.559Z,6.50
2023-05-27T15:13:27.286Z,5.75
2023-05-27T15:16:29.350Z,10.15
2023-05-27T15:19:31.462Z,7.13
2023-05-27T15:22:33.105Z,4.97
2023-05-27T15:25:37.253Z,6.28
2023-05-27T15:28:39.038Z,7.43
2023-05-27T15:31:40.883Z,6.57
2023-05-27T15:34:42.565Z,7.50
2023-05-27T15:37:44.223Z,5.90
2023-05-27T15:40:46.116Z,9.05
2023-05-27T15:43:47.791Z,7.63
2023-05-27T15:46:49.439Z,5.65
2023-05-27T15:49:51.246Z,5.57
2023-05-27T15:52:52.841Z,6.18
2023-05-27T15:55:54.550Z,8.02
2023-05-27T15:58:56.549Z,6.25
2023-05-27T16:01:58.186Z,7.05
2023-05-27T16:04:59.886Z,8.18
2023-05-27T16:08:01.498Z,7.03
2023-05-27T16:11:03.084Z,7.43
2023-05-27T16:14:04.722Z,7.60
2023-05-27T16:17:06.727Z,6.38
2023-05-27T16:20:08.697Z,6.22
2023-05-27T16:23:10.327Z,4.65
2023-05-27T16:26:11.925Z,7.15
2023-05-27T16:29:13.597Z,8.20
2023-05-27T16:32:15.622Z,4.43
2023-05-27T16:35:17.314Z,5.53
2023-05-27T16:38:20.062Z,6.47
2023-05-27T16:41:22.971Z,6.95
2023-05-27T16:44:24.559Z,7.78
2023-05-27T16:47:26.634Z,7.25
2023-05-27T16:50:28.462Z,5.15
2023-05-27T16:53:30.440Z,8.57
2023-05-27T16:56:32.100Z,5.05
2023-05-27T16:59:33.805Z,5.80
2023-05-27T17:02:36.196Z,6.82
2023-05-27T17:05:38.124Z,5.55
2023-05-27T17:08:39.765Z,5.82
2023-05-27T17:11:41.412Z,8.35
2023-05-27T17:14:44.674Z,4.85
2023-05-27T17:17:46.317Z,4.82
2023-05-27T17:20:48.202Z,6.88
2023-05-27T17:23:49.880Z,6.32
2023-05-27T17:26:51.619Z,6.10
2023-05-27T17:29:53.645Z,6.60
2023-05-27T17:32:55.593Z,9.65
2023-05-27T17:35:57.363Z,5.63
2023-05-27T17:38:59.736Z,6.32
2023-05-27T17:42:01.786Z,7.30
2023-05-27T17:45:03.637Z,7.63
2023-05-27T17:48:05.383Z,9.07
2023-05-27T17:51:07.433Z,8.10
2023-05-27T17:54:09.681Z,6.05
2023-05-27T17:57:11.338Z,7.95
2023-05-27T18:00:13.714Z,6.60
2023-05-27T18:03:15.558Z,6.00
2023-05-27T18:06:17.291Z,6.97
2023-05-27T18:09:18.916Z,8.60
2023-05-27T18:12:20.574Z,7.63
2023-05-27T18:15:22.330Z,7.97
2023-05-27T18:18:24.240Z,8.57
2023-05-27T18:21:26.217Z,7.55
2023-05-27T18:24:27.889Z,8.70
2023-05-27T18:27:29.486Z,5.80
2023-05-27T18:30:31.315Z,6.90
2023-05-27T18:33:33.002Z,6.80
2023-05-27T18:36:34.742Z,8.57
2023-05-27T18:39:36.358Z,7.40
2023-05-27T18:42:39.110Z,7.40
2023-05-27T18:45:53.887Z,8.50
2023-05-27T18:48:55.580Z,8.82
2023-05-27T18:51:57.205Z,8.95
2023-05-27T18:54:58.794Z,5.63
2023-05-27T18:58:00.571Z,8.23
2023-05-27T19:01:02.298Z,12.15
2023-05-27T19:04:04.028Z,6.68
2023-05-27T19:07:05.888Z,9.95
2023-05-27T19:10:07.993Z,7.68
2023-05-27T19:13:09.910Z,8.85
2023-05-27T19:16:11.668Z,9.05
2023-05-27T19:19:13.305Z,6.90
2023-05-27T19:22:17.688Z,9.90
2023-05-27T19:25:19.422Z,8.95
2023-05-27T19:28:21.042Z,9.93
2023-05-27T19:31:22.775Z,10.65
2023-05-27T19:34:24.691Z,9.57
2023-05-27T19:37:26.419Z,8.30
2023-05-27T19:40:28.166Z,11.73
2023-05-27T19:43:30.088Z,8.30
2023-05-27T19:46:31.762Z,6.97
2023-05-27T19:49:33.451Z,17.67
2023-05-27T19:52:35.077Z,33.33
2023-05-27T19:55:36.966Z,22.88
2023-05-27T19:58:38.616Z,17.08
2023-05-27T20:01:40.441Z,24.50
2023-05-27T20:04:42.152Z,30.25
2023-05-27T20:07:43.927Z,35.88
2023-05-27T20:10:45.727Z,20.98
2023-05-27T20:13:47.374Z,22.27
2023-05-27T20:16:49.150Z,14.35
2023-05-27T20:19:51.098Z,10.98
2023-05-27T20:22:52.740Z,8.93
2023-05-27T20:25:54.591Z,8.45
2023-05-27T20:28:56.351Z,7.18
2023-05-27T20:31:57.983Z,11.88
2023-05-27T20:34:59.592Z,12.95
2023-05-27T20:38:01.189Z,11.50
2023-05-27T20:41:05.875Z,9.60
2023-05-27T20:44:08.170Z,13.07
2023-05-27T20:47:10.864Z,10.07
2023-05-27T20:50:12.659Z,10.77
2023-05-27T20:53:14.352Z,10.82
2023-05-27T20:56:16.134Z,7.03
2023-05-27T20:59:18.088Z,7.15
2023-05-27T21:02:19.801Z,6.35
2023-05-27T21:05:21.490Z,7.15
2023-05-27T21:08:23.104Z,6.05
2023-05-27T21:11:24.681Z,7.57
2023-05-27T21:14:26.355Z,7.93
2023-05-27T21:17:28.067Z,9.07
2023-05-27T21:20:30.000Z,7.15
2023-05-27T21:23:31.746Z,5.25
2023-05-27T21:26:34.009Z,5.82
2023-05-27T21:29:35.704Z,5.43
2023-05-27T21:32:37.562Z,7.03
2023-05-27T21:35:40.584Z,3.75
2023-05-27T21:38:45.356Z,7.07
2023-05-27T21:41:47.006Z,5.07
2023-05-27T21:44:50.958Z,8.07
2023-05-27T21:47:52.772Z,4.45
2023-05-27T21:50:54.526Z,4.38
2023-05-27T21:53:57.928Z,3.42
2023-05-27T21:56:59.636Z,5.03
2023-05-27T22:00:03.548Z,6.65
2023-05-27T22:03:06.204Z,5.50
2023-05-27T22:06:08.374Z,5.93
2023-05-27T22:09:12.097Z,5.45
2023-05-27T22:12:15.468Z,2.80
2023-05-27T22:15:17.209Z,5.78
2023-05-27T22:18:18.820Z,5.70
2023-05-27T22:21:28.704Z,5.22
2023-05-27T22:24:32.138Z,4.80
2023-05-27T22:27:34.629Z,4.30
2023-05-27T22:30:36.414Z,7.18
2023-05-27T22:33:38.071Z,4.07
2023-05-27T22:36:40.038Z,4.45
2023-05-27T22:39:41.811Z,4.47
2023-05-27T22:42:43.488Z,4.75
2023-05-27T22:45:45.089Z,3.72
2023-05-27T22:48:47.025Z,5.13
2023-05-27T22:51:48.681Z,4.07
2023-05-27T22:54:50.374Z,7.30
2023-05-27T22:57:51.956Z,6.03
2023-05-27T23:00:53.524Z,5.18
2023-05-27T23:03:55.306Z,7.07
2023-05-27T23:06:57.010Z,5.18
2023-05-27T23:09:58.770Z,6.32
2023-05-27T23:13:00.374Z,6.57
2023-05-27T23:16:08.792Z,6.30
2023-05-27T23:19:11.675Z,6.70
2023-05-27T23:22:13.339Z,4.85
2023-05-27T23:25:15.029Z,6.10
2023-05-27T23:28:16.643Z,3.55
2023-05-27T23:31:18.360Z,5.78
2023-05-27T23:34:20.662Z,5.35
2023-05-27T23:37:22.255Z,4.60
2023-05-27T23:40:23.896Z,6.65
2023-05-27T23:43:28.317Z,7.72
2023-05-27T23:46:29.992Z,4.85
2023-05-27T23:49:31.640Z,4.57
2023-05-27T23:52:33.209Z,3.05
2023-05-27T23:55:34.788Z,8.07
2023-05-27T23:58:36.390Z,5.50
